createdAt,value
2018-12-04T00:00:29.816Z,7.40
2018-12-04T00:02:58.125Z,7.40
2018-12-04T00:05:26.483Z,7.40
2018-12-04T00:07:54.797Z,7.40
2018-12-04T00:10:23.125Z,7.40
2018-12-04T00:12:51.667Z,7.40
2018-12-04T00:15:20.305Z,7.40
2018-12-04T00:17:48.666Z,7.40
2018-12-04T00:20:16.993Z,7.40
2018-12-04T00:22:45.319Z,7.40
2018-12-04T00:25:13.676Z,7.40
2018-12-04T00:27:50.509Z,7.40
2018-12-04T00:30:18.798Z,7.40
2018-12-04T00:32:47.122Z,7.40
2018-12-04T00:35:23.316Z,7.40
2018-12-04T00:37:53.655Z,7.40
2018-12-04T00:40:22.002Z,7.40
2018-12-04T00:42:50.345Z,7.40
2018-12-04T00:45:18.670Z,7.40
2018-12-04T00:47:47.025Z,7.30
2018-12-04T00:50:15.412Z,7.30
2018-12-04T00:52:43.718Z,7.40
2018-12-04T00:55:12.043Z,7.40
2018-12-04T00:57:40.350Z,7.40
2018-12-04T01:00:09.656Z,7.40
2018-12-04T01:02:38.231Z,7.40
2018-12-04T01:05:06.907Z,7.40
2018-12-04T01:07:48.446Z,7.40
2018-12-04T01:10:16.740Z,7.40
2018-12-04T01:12:45.098Z,7.40
2018-12-04T01:15:13.728Z,7.40
2018-12-04T01:17:42.019Z,7.40
2018-12-04T01:20:10.343Z,7.40
2018-12-04T01:22:39.577Z,7.40
2018-12-04T01:25:07.990Z,7.40
2018-12-04T01:27:36.315Z,7.40
2018-12-04T01:30:05.203Z,7.40
2018-12-04T01:32:33.594Z,7.40
2018-12-04T01:35:01.926Z,7.40
2018-12-04T01:37:30.281Z,7.40
2018-12-04T01:39:58.581Z,7.40
2018-12-04T01:42:26.972Z,7.40
2018-12-04T01:44:55.373Z,7.40
2018-12-04T01:47:23.728Z,7.40
2018-12-04T01:49:52.156Z,7.40
2018-12-04T01:52:32.416Z,7.40
2018-12-04T01:55:00.755Z,7.30
2018-12-04T01:57:37.828Z,7.30
2018-12-04T02:00:06.367Z,7.30
2018-12-04T02:02:34.685Z,7.30
2018-12-04T02:05:03.043Z,7.30
2018-12-04T02:07:31.446Z,7.30
2018-12-04T02:10:00.443Z,7.30
2018-12-04T02:12:36.719Z,7.30
2018-12-04T02:15:05.117Z,7.30
2018-12-04T02:17:33.796Z,7.30
2018-12-04T02:20:02.322Z,7.30
2018-12-04T02:22:30.862Z,7.40
2018-12-04T02:25:01.529Z,7.40
2018-12-04T02:27:29.882Z,7.40
2018-12-04T02:29:58.230Z,7.40
2018-12-04T02:32:26.584Z,7.40
2018-12-04T02:34:54.996Z,7.40
2018-12-04T02:37:23.356Z,7.40
2018-12-04T02:39:51.755Z,7.50
2018-12-04T02:42:24.294Z,7.40
2018-12-04T02:44:52.649Z,7.40
2018-12-04T02:47:21.361Z,7.40
2018-12-04T02:49:54.454Z,7.50
2018-12-04T02:52:22.785Z,7.50
2018-12-04T02:54:51.118Z,7.50
2018-12-04T02:57:20.452Z,7.50
2018-12-04T02:59:48.771Z,7.50
2018-12-04T03:02:17.255Z,7.40
2018-12-04T03:04:51.916Z,7.40
2018-12-04T03:07:20.268Z,7.30
2018-12-04T03:09:48.622Z,7.30
2018-12-04T03:12:17.016Z,7.30
2018-12-04T03:14:45.345Z,7.30
2018-12-04T03:17:13.907Z,7.30
2018-12-04T03:19:42.445Z,7.30
2018-12-04T03:22:10.958Z,7.30
2018-12-04T03:24:39.330Z,7.30
2018-12-04T03:27:08.031Z,7.30
2018-12-04T03:29:36.333Z,7.40
2018-12-04T03:32:04.653Z,7.30
2018-12-04T03:34:32.980Z,7.30
2018-12-04T03:37:01.532Z,7.20
2018-12-04T03:39:29.837Z,7.10
2018-12-04T03:41:58.146Z,7.10
2018-12-04T03:44:26.493Z,7.00
2018-12-04T03:46:54.828Z,7.00
2018-12-04T03:49:23.153Z,7.00
2018-12-04T03:51:51.521Z,7.00
2018-12-04T03:54:19.815Z,6.90
2018-12-04T03:56:48.153Z,7.00
2018-12-04T03:59:16.545Z,7.00
2018-12-04T04:01:44.881Z,7.00
2018-12-04T04:04:13.262Z,7.00
2018-12-04T04:06:41.614Z,6.90
2018-12-04T04:09:10.143Z,6.90
2018-12-04T04:11:38.636Z,6.80
2018-12-04T04:14:07.017Z,6.80
2018-12-04T04:16:35.373Z,6.80
2018-12-04T04:19:03.813Z,6.70
2018-12-04T04:21:32.287Z,6.70
2018-12-04T04:24:00.613Z,6.60
2018-12-04T04:26:29.089Z,6.60
2018-12-04T04:28:57.388Z,6.60
2018-12-04T04:31:25.695Z,6.50
2018-12-04T04:33:54.100Z,6.40
2018-12-04T04:36:25.368Z,6.40
2018-12-04T04:38:53.707Z,6.40
2018-12-04T04:41:22.077Z,6.40
2018-12-04T04:43:50.419Z,6.30
2018-12-04T04:46:18.752Z,6.30
2018-12-04T04:48:47.111Z,6.30
2018-12-04T04:51:23.993Z,6.30
2018-12-04T04:53:52.397Z,6.20
2018-12-04T04:56:20.755Z,6.20
2018-12-04T04:58:49.097Z,6.20
2018-12-04T05:01:17.403Z,6.20
2018-12-04T05:03:45.709Z,6.10
2018-12-04T05:06:18.631Z,6.10
2018-12-04T05:08:47.018Z,6.10
2018-12-04T05:11:15.361Z,6.00
2018-12-04T05:13:43.748Z,6.00
2018-12-04T05:16:12.093Z,6.00
2018-12-04T05:18:40.403Z,6.00
2018-12-04T05:21:09.011Z,6.00
2018-12-04T05:23:37.314Z,6.00
2018-12-04T05:26:05.682Z,6.00
2018-12-04T05:28:34.197Z,6.00
2018-12-04T05:31:02.500Z,6.00
2018-12-04T05:33:30.811Z,5.90
2018-12-04T05:35:59.130Z,5.90
2018-12-04T05:38:27.450Z,5.90
2018-12-04T05:40:55.756Z,5.90
2018-12-04T05:43:24.157Z,5.90
2018-12-04T05:45:52.472Z,5.90
2018-12-04T05:48:20.757Z,5.80
2018-12-04T05:50:49.053Z,5.90
2018-12-04T05:53:33.793Z,5.90
2018-12-04T05:56:02.470Z,5.90
2018-12-04T05:58:30.755Z,5.90
2018-12-04T06:00:59.104Z,5.90
2018-12-04T06:03:27.423Z,5.80
2018-12-04T06:05:55.776Z,5.80
2018-12-04T06:08:24.172Z,5.80
2018-12-04T06:10:59.011Z,5.80
2018-12-04T06:13:42.954Z,5.80
2018-12-04T06:16:11.327Z,5.90
2018-12-04T06:18:39.646Z,5.90
2018-12-04T06:21:07.986Z,5.90
2018-12-04T06:23:36.372Z,5.90
2018-12-04T06:26:04.696Z,5.80
2018-12-04T06:28:33.091Z,5.70
2018-12-04T06:31:01.530Z,5.70
2018-12-04T06:33:29.817Z,5.60
2018-12-04T06:35:58.136Z,5.60
2018-12-04T06:38:26.548Z,5.60
2018-12-04T06:40:54.933Z,5.60
2018-12-04T06:43:23.293Z,5.60
2018-12-04T06:45:51.695Z,5.60
2018-12-04T06:48:20.093Z,5.60
2018-12-04T06:50:48.465Z,5.70
2018-12-04T06:53:16.769Z,5.70
2018-12-04T06:55:45.076Z,5.70
2018-12-04T06:58:13.587Z,5.70
2018-12-04T07:00:42.012Z,5.70
2018-12-04T07:03:10.304Z,5.80
2018-12-04T07:05:38.696Z,5.80
2018-12-04T07:08:07.051Z,5.80
2018-12-04T07:10:35.351Z,5.90
2018-12-04T07:13:03.694Z,5.90
2018-12-04T07:15:32.061Z,5.90
2018-12-04T07:18:00.357Z,5.90
2018-12-04T07:20:28.699Z,5.90
2018-12-04T07:22:57.187Z,5.90
2018-12-04T07:25:25.343Z,5.80
2018-12-04T07:27:53.685Z,5.80
2018-12-04T07:30:22.015Z,5.80
2018-12-04T07:32:50.305Z,5.80
2018-12-04T07:35:18.634Z,5.90
2018-12-04T07:37:46.954Z,5.90
2018-12-04T07:40:15.293Z,5.90
2018-12-04T07:42:43.670Z,5.90
2018-12-04T07:45:12.011Z,5.90
2018-12-04T07:47:40.484Z,5.90
2018-12-04T07:50:08.828Z,5.90
2018-12-04T07:52:37.187Z,6.00
2018-12-04T07:55:05.711Z,5.90
2018-12-04T07:57:34.057Z,5.90
2018-12-04T08:00:02.590Z,6.00
2018-12-04T08:02:30.937Z,6.00
2018-12-04T08:04:59.462Z,6.00
2018-12-04T08:07:27.775Z,6.00
2018-12-04T08:09:56.202Z,6.00
2018-12-04T08:12:24.543Z,6.00
2018-12-04T08:14:52.972Z,6.00
2018-12-04T08:17:21.353Z,6.10
2018-12-04T08:19:49.666Z,6.10
2018-12-04T08:22:18.020Z,6.10
2018-12-04T08:24:46.319Z,6.10
2018-12-04T08:27:20.248Z,6.10
2018-12-04T08:29:48.577Z,6.10
2018-12-04T08:32:16.984Z,6.10
2018-12-04T08:34:45.345Z,6.10
2018-12-04T08:37:13.658Z,6.20
2018-12-04T08:39:41.974Z,6.20
2018-12-04T08:42:10.395Z,6.20
2018-12-04T08:44:38.782Z,6.20
2018-12-04T08:47:07.110Z,6.20
2018-12-04T08:49:35.465Z,6.20
2018-12-04T08:52:03.863Z,6.30
2018-12-04T08:54:32.686Z,6.30
2018-12-04T08:57:00.585Z,6.30
2018-12-04T08:59:29.018Z,6.30
2018-12-04T09:01:57.545Z,6.30
2018-12-04T09:04:25.890Z,6.40
2018-12-04T09:06:54.353Z,6.40
2018-12-04T09:09:22.668Z,6.50
2018-12-04T09:11:51.051Z,6.50
2018-12-04T09:14:19.407Z,6.50
2018-12-04T09:16:47.781Z,6.50
2018-12-04T09:19:16.121Z,6.50
2018-12-04T09:21:44.528Z,6.50
2018-12-04T09:24:12.893Z,6.50
2018-12-04T09:26:41.418Z,6.60
2018-12-04T09:29:09.801Z,6.60
2018-12-04T09:31:38.104Z,6.60
2018-12-04T09:34:06.380Z,6.60
2018-12-04T09:36:34.711Z,6.60
2018-12-04T09:39:03.142Z,6.60
2018-12-04T09:41:31.550Z,6.70
2018-12-04T09:43:59.933Z,6.60
2018-12-04T09:46:28.493Z,6.70
2018-12-04T09:48:56.797Z,6.70
2018-12-04T09:51:25.184Z,6.70
2018-12-04T09:53:53.487Z,6.70
2018-12-04T09:56:21.847Z,6.70
2018-12-04T09:58:50.201Z,6.70
2018-12-04T10:01:18.530Z,6.70
2018-12-04T10:03:46.973Z,6.70
2018-12-04T10:06:15.330Z,6.70
2018-12-04T10:08:43.612Z,6.70
2018-12-04T10:11:11.991Z,6.70
2018-12-04T10:13:40.346Z,6.70
2018-12-04T10:16:08.631Z,6.70
2018-12-04T10:18:37.063Z,6.70
2018-12-04T10:21:05.401Z,6.70
2018-12-04T10:23:33.745Z,6.70
2018-12-04T10:26:02.128Z,6.60
2018-12-04T10:28:30.586Z,6.60
2018-12-04T10:31:09.699Z,6.60
2018-12-04T10:33:38.548Z,6.60
2018-12-04T10:36:06.924Z,6.60
2018-12-04T10:38:35.305Z,6.60
2018-12-04T10:41:03.663Z,6.60
2018-12-04T10:43:31.979Z,6.60
2018-12-04T10:46:00.315Z,6.60
2018-12-04T10:48:28.664Z,6.60
2018-12-04T10:50:57.065Z,6.60
2018-12-04T10:53:25.350Z,6.60
2018-12-04T10:55:53.636Z,6.60
2018-12-04T10:58:22.022Z,6.50
2018-12-04T11:00:55.413Z,6.50
2018-12-04T11:03:29.305Z,6.50
2018-12-04T11:05:57.905Z,6.50
2018-12-04T11:08:26.196Z,6.50
2018-12-04T11:10:54.802Z,6.40
2018-12-04T11:13:23.096Z,6.40
2018-12-04T11:15:51.424Z,6.40
2018-12-04T11:18:19.823Z,6.30
2018-12-04T11:20:48.186Z,6.30
2018-12-04T11:23:16.545Z,6.30
2018-12-04T11:25:44.935Z,6.30
2018-12-04T11:28:13.340Z,6.20
2018-12-04T11:30:41.675Z,6.20
2018-12-04T11:33:10.069Z,6.20
2018-12-04T11:35:38.401Z,6.20
2018-12-04T11:38:06.721Z,6.20
2018-12-04T11:40:35.143Z,6.20
2018-12-04T11:43:03.443Z,6.30
2018-12-04T11:45:31.817Z,6.30
2018-12-04T11:48:00.194Z,6.30
2018-12-04T11:50:28.589Z,6.20
2018-12-04T11:52:56.980Z,6.20
2018-12-04T11:55:25.415Z,6.20
2018-12-04T11:57:53.810Z,6.20
2018-12-04T12:00:28.508Z,6.20
2018-12-04T12:02:56.890Z,6.20
2018-12-04T12:05:25.264Z,6.20
2018-12-04T12:07:53.778Z,6.20
2018-12-04T12:10:22.084Z,6.10
2018-12-04T12:12:50.488Z,6.10
2018-12-04T12:15:19.656Z,6.10
2018-12-04T12:17:47.289Z,6.10
2018-12-04T12:20:15.678Z,6.10
2018-12-04T12:22:44.093Z,6.00
2018-12-04T12:25:12.418Z,6.00
2018-12-04T12:27:40.859Z,6.00
2018-12-04T12:30:10.596Z,5.90
2018-12-04T12:32:38.955Z,5.90
2018-12-04T12:35:07.997Z,5.90
2018-12-04T12:37:36.379Z,5.90
2018-12-04T12:40:06.498Z,5.90
2018-12-04T12:42:34.833Z,5.90
2018-12-04T12:45:03.626Z,5.90
2018-12-04T12:47:32.082Z,6.00
2018-12-04T12:50:00.439Z,6.00
2018-12-04T12:52:28.791Z,6.00
2018-12-04T12:54:57.109Z,6.10
2018-12-04T12:57:25.538Z,6.10
2018-12-04T12:59:53.950Z,6.00
2018-12-04T13:02:22.374Z,6.00
2018-12-04T13:04:50.697Z,5.90
2018-12-04T13:07:19.014Z,5.90
2018-12-04T13:09:47.584Z,5.90
2018-12-04T13:12:15.872Z,5.80
2018-12-04T13:14:44.248Z,5.70
2018-12-04T13:17:12.625Z,5.70
2018-12-04T13:19:40.944Z,5.60
2018-12-04T13:22:09.556Z,5.60
2018-12-04T13:24:37.982Z,5.60
2018-12-04T13:27:06.361Z,5.50
2018-12-04T13:29:34.682Z,5.40
2018-12-04T13:32:03.050Z,5.30
2018-12-04T13:34:31.539Z,5.30
2018-12-04T13:36:59.928Z,5.30
2018-12-04T13:39:28.370Z,5.30
2018-12-04T13:41:56.692Z,5.30
2018-12-04T13:44:25.081Z,5.30
2018-12-04T13:46:53.560Z,5.20
2018-12-04T13:49:21.982Z,5.20
2018-12-04T13:51:50.436Z,5.20
2018-12-04T13:54:18.859Z,5.20
2018-12-04T13:56:47.321Z,5.20
2018-12-04T13:59:15.829Z,5.20
2018-12-04T14:01:44.228Z,5.10
2018-12-04T14:04:16.576Z,5.10
2018-12-04T14:06:40.988Z,5.10
2018-12-04T14:09:09.426Z,5.00
2018-12-04T14:11:38.248Z,5.00
2018-12-04T14:14:06.736Z,5.00
2018-12-04T14:16:35.216Z,5.00
2018-12-04T14:19:03.658Z,5.00
2018-12-04T14:21:32.016Z,5.00
2018-12-04T14:24:01.531Z,5.00
2018-12-04T14:26:28.781Z,4.90
2018-12-04T14:28:57.087Z,4.90
2018-12-04T14:31:25.402Z,4.90
2018-12-04T14:33:53.756Z,5.00
2018-12-04T14:36:22.223Z,4.90
2018-12-04T14:38:50.552Z,5.00
2018-12-04T14:41:18.892Z,5.00
2018-12-04T14:43:47.292Z,4.90
2018-12-04T14:46:15.742Z,4.90
2018-12-04T14:48:44.356Z,4.90
2018-12-04T14:51:12.739Z,4.80
2018-12-04T14:53:41.199Z,4.80
2018-12-04T14:56:10.114Z,4.80
2018-12-04T14:58:38.521Z,4.80
2018-12-04T15:01:06.936Z,4.70
2018-12-04T15:03:35.555Z,4.70
2018-12-04T15:06:04.043Z,4.70
2018-12-04T15:08:32.546Z,4.60
2018-12-04T15:11:00.975Z,4.60
2018-12-04T15:13:29.674Z,4.60
2018-12-04T15:15:58.331Z,4.60
2018-12-04T15:18:26.744Z,4.60
2018-12-04T15:20:55.138Z,4.50
2018-12-04T15:23:23.520Z,4.50
2018-12-04T15:25:52.034Z,4.50
2018-12-04T15:28:20.397Z,4.50
2018-12-04T15:30:48.780Z,4.40
2018-12-04T15:33:17.175Z,4.40
2018-12-04T15:35:45.724Z,4.40
2018-12-04T15:38:20.772Z,4.40
2018-12-04T15:40:49.207Z,4.40
2018-12-04T15:43:17.654Z,4.40
2018-12-04T15:45:46.160Z,4.40
2018-12-04T15:48:14.499Z,4.40
2018-12-04T15:50:42.815Z,4.40
2018-12-04T15:53:11.254Z,4.40
2018-12-04T15:55:39.561Z,4.40
2018-12-04T15:58:07.860Z,4.30
2018-12-04T16:00:36.232Z,4.30
2018-12-04T16:03:04.521Z,4.40
2018-12-04T16:05:32.942Z,4.40
2018-12-04T16:08:01.253Z,4.40
2018-12-04T16:10:29.562Z,4.40
2018-12-04T16:12:57.911Z,4.40
2018-12-04T16:15:26.495Z,4.40
2018-12-04T16:17:54.811Z,4.40
2018-12-04T16:20:23.160Z,4.40
2018-12-04T16:22:51.513Z,4.40
2018-12-04T16:25:19.828Z,4.30
2018-12-04T16:27:48.164Z,4.30
2018-12-04T16:30:16.580Z,4.20
2018-12-04T16:32:44.875Z,4.20
2018-12-04T16:35:13.252Z,4.20
2018-12-04T16:37:41.817Z,4.10
2018-12-04T16:40:10.238Z,4.10
2018-12-04T16:42:38.548Z,4.10
2018-12-04T16:45:07.006Z,4.10
2018-12-04T16:47:35.388Z,4.00
2018-12-04T16:50:04.128Z,4.00
2018-12-04T16:52:32.473Z,3.90
2018-12-04T16:55:00.835Z,3.90
2018-12-04T16:57:29.197Z,3.90
2018-12-04T16:59:57.527Z,3.80
2018-12-04T17:02:25.826Z,3.80
2018-12-04T17:04:54.174Z,3.70
2018-12-04T17:07:22.508Z,3.70
2018-12-04T17:09:50.839Z,3.60
2018-12-04T17:12:19.174Z,3.50
2018-12-04T17:14:47.514Z,3.40
2018-12-04T17:17:16.048Z,3.40
2018-12-04T17:19:44.371Z,3.30
2018-12-04T17:22:14.519Z,3.30
2018-12-04T17:24:41.410Z,3.30
2018-12-04T17:27:09.761Z,3.30
2018-12-04T17:29:38.134Z,3.20
2018-12-04T17:32:06.430Z,3.20
2018-12-04T17:34:34.804Z,3.20
2018-12-04T17:37:03.233Z,3.20
2018-12-04T17:39:31.584Z,3.20
2018-12-04T17:41:59.901Z,3.10
2018-12-04T17:44:28.282Z,3.10
2018-12-04T17:46:56.817Z,3.10
2018-12-04T17:49:25.220Z,3.10
2018-12-04T17:51:53.644Z,3.10
2018-12-04T17:54:21.995Z,3.00
2018-12-04T17:56:50.381Z,3.00
2018-12-04T17:59:18.759Z,3.00
2018-12-04T18:01:47.139Z,3.00
2018-12-04T18:04:15.758Z,3.00
2018-12-04T18:06:44.122Z,2.90
2018-12-04T18:09:12.438Z,3.00
2018-12-04T18:11:40.809Z,2.90
2018-12-04T18:14:09.103Z,2.90
2018-12-04T18:16:37.709Z,2.80
2018-12-04T18:19:06.261Z,2.80
2018-12-04T18:21:34.601Z,2.70
2018-12-04T18:24:02.955Z,2.60
2018-12-04T18:26:31.295Z,2.40
2018-12-04T18:28:59.599Z,2.20
2018-12-04T18:31:27.899Z,2.00
2018-12-04T18:33:56.323Z,1.90
2018-12-04T18:36:24.666Z,1.90
2018-12-04T18:38:52.987Z,1.80
2018-12-04T18:41:21.343Z,1.80
2018-12-04T18:43:49.701Z,1.90
2018-12-04T18:46:18.087Z,1.90
2018-12-04T18:48:46.428Z,1.90
2018-12-04T18:51:14.783Z,2.00
2018-12-04T18:53:43.105Z,2.10
2018-12-04T18:56:11.466Z,2.30
2018-12-04T18:58:39.997Z,2.40
2018-12-04T19:01:08.356Z,2.50
2018-12-04T19:03:36.785Z,2.60
2018-12-04T19:06:05.135Z,2.70
2018-12-04T19:08:39.014Z,2.80
2018-12-04T19:11:07.390Z,2.80
2018-12-04T19:13:35.684Z,2.90
2018-12-04T19:16:04.090Z,2.90
2018-12-04T19:18:32.417Z,2.90
2018-12-04T19:21:01.085Z,3.00
2018-12-04T19:23:29.423Z,3.00
2018-12-04T19:25:57.787Z,3.00
2018-12-04T19:28:26.098Z,3.00
2018-12-04T19:30:54.479Z,3.10
2018-12-04T19:33:22.798Z,3.00
2018-12-04T19:35:51.088Z,3.10
2018-12-04T19:38:19.535Z,3.10
2018-12-04T19:40:48.393Z,3.10
2018-12-04T19:43:16.839Z,3.10
2018-12-04T19:45:45.303Z,3.10
2018-12-04T19:48:13.602Z,3.10
2018-12-04T19:50:41.982Z,3.10
2018-12-04T19:53:10.331Z,3.20
2018-12-04T19:55:38.663Z,3.20
2018-12-04T19:58:07.061Z,3.20
2018-12-04T20:00:35.374Z,3.20
2018-12-04T20:03:03.702Z,3.20
2018-12-04T20:05:32.067Z,3.20
2018-12-04T20:08:01.047Z,3.20
2018-12-04T20:10:29.457Z,3.20
2018-12-04T20:12:57.822Z,3.20
2018-12-04T20:15:26.128Z,3.20
2018-12-04T20:17:54.431Z,3.20
2018-12-04T20:20:22.838Z,3.30
2018-12-04T20:22:51.425Z,3.30
2018-12-04T20:25:19.914Z,3.30
2018-12-04T20:27:48.316Z,3.40
2018-12-04T20:30:16.631Z,3.40
2018-12-04T20:32:45.043Z,3.40
2018-12-04T20:35:13.435Z,3.40
2018-12-04T20:37:41.783Z,3.40
2018-12-04T20:40:10.093Z,3.50
2018-12-04T20:42:38.584Z,3.50
2018-12-04T20:45:07.408Z,3.60
2018-12-04T20:47:35.704Z,3.60
2018-12-04T20:50:04.332Z,3.60
2018-12-04T20:52:32.684Z,3.60
2018-12-04T20:55:08.506Z,3.70
2018-12-04T20:57:29.648Z,3.70
2018-12-04T20:59:57.983Z,3.80
2018-12-04T21:02:26.339Z,3.80
2018-12-04T21:04:54.767Z,3.80
2018-12-04T21:07:23.108Z,3.70
2018-12-04T21:09:51.798Z,3.80
2018-12-04T21:12:20.180Z,3.80
2018-12-04T21:14:48.471Z,3.80
2018-12-04T21:17:17.385Z,3.80
2018-12-04T21:19:45.767Z,3.90
2018-12-04T21:22:14.130Z,3.80
2018-12-04T21:24:42.844Z,3.80
2018-12-04T21:27:16.495Z,3.90
2018-12-04T21:29:50.063Z,4.00
2018-12-04T21:32:24.248Z,4.00
2018-12-04T21:34:57.898Z,4.00
2018-12-04T21:37:31.563Z,4.10
2018-12-04T21:40:05.137Z,4.10
2018-12-04T21:42:38.856Z,4.10
2018-12-04T21:45:12.617Z,4.00
2018-12-04T21:47:46.261Z,4.00
2018-12-04T21:50:14.707Z,3.90
2018-12-04T21:52:43.123Z,3.80
2018-12-04T21:55:11.652Z,3.70
2018-12-04T21:57:40.071Z,3.60
2018-12-04T22:00:08.452Z,3.50
2018-12-04T22:02:37.052Z,3.40
2018-12-04T22:05:05.658Z,3.40
2018-12-04T22:07:34.045Z,3.30
2018-12-04T22:10:02.424Z,3.30
2018-12-04T22:12:30.719Z,3.30
2018-12-04T22:14:59.090Z,3.30
2018-12-04T22:17:27.435Z,3.30
2018-12-04T22:19:55.742Z,3.20
2018-12-04T22:22:24.030Z,3.20
2018-12-04T22:24:52.568Z,3.20
2018-12-04T22:27:20.841Z,3.20
2018-12-04T22:29:49.203Z,3.20
2018-12-04T22:32:17.550Z,3.20
2018-12-04T22:34:45.974Z,3.20
2018-12-04T22:37:14.358Z,3.20
2018-12-04T22:39:42.673Z,3.10
2018-12-04T22:42:11.043Z,3.10
2018-12-04T22:44:39.438Z,3.10
2018-12-04T22:47:07.776Z,3.10
2018-12-04T22:49:36.112Z,3.00
2018-12-04T22:52:04.457Z,3.00
2018-12-04T22:54:32.823Z,3.00
2018-12-04T22:57:01.355Z,2.90
2018-12-04T22:59:29.737Z,2.90
2018-12-04T23:01:58.419Z,2.80
2018-12-04T23:04:26.757Z,2.90
2018-12-04T23:06:55.164Z,2.80
2018-12-04T23:09:23.509Z,2.80
2018-12-04T23:11:51.843Z,2.80
2018-12-04T23:14:20.194Z,2.80
2018-12-04T23:16:48.494Z,2.70
2018-12-04T23:19:16.837Z,2.70
2018-12-04T23:21:45.190Z,2.70
2018-12-04T23:24:13.511Z,2.70
2018-12-04T23:26:41.962Z,2.70
2018-12-04T23:29:10.280Z,2.80
2018-12-04T23:31:38.640Z,2.80
2018-12-04T23:34:06.981Z,2.70
2018-12-04T23:36:35.244Z,2.70
2018-12-04T23:39:03.954Z,2.70
2018-12-04T23:41:32.393Z,2.70
2018-12-04T23:44:00.698Z,2.70
2018-12-04T23:46:29.169Z,2.70
2018-12-04T23:48:57.606Z,2.60
2018-12-04T23:51:26.086Z,2.60
2018-12-04T23:53:54.434Z,2.60
2018-12-04T23:56:22.794Z,2.60
2018-12-04T23:58:51.133Z,2.70
